Flight Track Log - Related Links

Times and Time Zones

All times are in EDT time to prevent confusion due to time zone crossing. See the N6ZQ flight status page for this flight to view local times or setup timezone preferences in your user account.

Time Position Orientation Groundspeed Altitude Reporting Facility
EDT Latitude Longitude Course Direction KTS MPH feet Rate Location/Type
02:10PM 37.4833 -77.2333 90° East 170 196 3,600  Level Potomac TRACON
02:11PM 37.5122 -77.2217 18° North 171 197 4,500 1,075 Climbing Washington Center
02:12PM 37.5514 -77.2358 344° North 152 175 5,500 528 Climbing Washington Center
02:13PM 37.5983 -77.2439 352° North 165 190 5,600 -48 Climbing Washington Center
02:14PM 37.6500 -77.2475 357° North 181 208 5,400 -48 Descending Washington Center
02:15PM 37.7237 -77.3534 354° North  Level FlightAware Approximate
02:15PM 37.6989 -77.2525 355° North 180 207 5,500  Level Washington Center
02:16PM 37.7611 -77.2517 North 183 211 5,600 49 Climbing Washington Center
02:17PM 37.8147 -77.2464 North 190 219 5,600 -48 Level Washington Center
02:18PM 37.8669 -77.2503 357° North 192 221 5,500  Descending Washington Center
02:19PM 37.9175 -77.2661 346° North 191 220 5,600 -97 Climbing Washington Center
02:20PM 37.9692 -77.2850 344° North 191 220 5,300 -541 Descending Washington Center
02:21PM 38.0306 -77.3128 340° North 195 224 4,500 -288 Descending Washington Center
02:22PM 38.0633 -77.3486 319° Northwest 178 205 4,700  Climbing Washington Center
02:23PM 38.1039 -77.3767 331° Northwest 167 192 4,500 -532 Descending Washington Center
02:24PM 38.1686 -77.3908 350° North 190 219 3,600 -871 Descending Washington Center
02:25PM 38.2253 -77.3922 359° North 197 227 2,700 -968 Descending Washington Center
02:26PM 38.2831 -77.3939 359° North 203 234 1,600 -661 Descending Washington Center
02:27PM 38.3358 -77.3883 North 200 230 1,300 -242 Descending Washington Center
02:28PM 38.3631 -77.3981 344° North 148 170 1,100 -387 Descending Washington Center
02:29PM 38.3606 -77.4381 265° West 126 145 500 -225 Descending Washington Center
02:31PM 38.3500 -77.4833 253° West 103 119 500  Level Potomac TRACON

Login

Don't have an account? Register now (free) for customized features, flight alerts, and more!